Time,TemperatureF,DewpointF,PressureIn,WindDirection,WindDirectionDegrees,WindSpeedMPH,WindSpeedGustMPH,Humidity,HourlyPrecipIn,Conditions,Clouds,dailyrainin,SoftwareType,DateUTC
2013-01-09 00:00:00,35.6,32.7,30.23,WNW,287,0.0,0.0,89,0.00,,,0.00,VWS V14.01,2013-01-09 08:00:00,
2013-01-09 00:05:00,35.6,32.7,30.23,WNW,287,0.0,1.0,89,0.00,,,0.00,VWS V14.01,2013-01-09 08:05:00,
2013-01-09 00:10:00,35.5,32.6,30.24,WNW,287,0.0,1.0,89,0.00,,,0.00,VWS V14.01,2013-01-09 08:10:00,
2013-01-09 00:15:00,35.6,32.7,30.23,WNW,287,0.0,0.0,89,0.00,,,0.00,VWS V14.01,2013-01-09 08:15:00,
2013-01-09 00:20:00,35.6,32.7,30.23,WNW,287,0.0,0.0,89,0.00,,,0.00,VWS V14.01,2013-01-09 08:20:00,
2013-01-09 00:25:00,35.8,32.9,30.23,WNW,287,0.0,0.0,89,0.00,,,0.00,VWS V14.01,2013-01-09 08:25:00,
2013-01-09 00:30:00,35.7,32.8,30.23,WNW,287,0.0,1.0,89,0.00,,,0.00,VWS V14.01,2013-01-09 08:30:00,
2013-01-09 00:35:00,35.9,33.3,30.23,WNW,287,0.0,1.0,90,0.00,,,0.00,VWS V14.01,2013-01-09 08:35:00,
2013-01-09 00:40:00,36.1,33.2,30.23,WNW,287,0.0,1.0,89,0.00,,,0.00,VWS V14.01,2013-01-09 08:40:00,
2013-01-09 00:45:00,36.1,33.2,30.23,WNW,287,0.0,0.0,89,0.00,,,0.00,VWS V14.01,2013-01-09 08:45:00,
2013-01-09 00:50:00,36.0,33.1,30.23,WNW,287,0.0,0.0,89,0.00,,,0.00,VWS V14.01,2013-01-09 08:50:00,
2013-01-09 00:55:00,36.0,33.1,30.23,WNW,287,0.0,1.0,89,0.00,,,0.00,VWS V14.01,2013-01-09 08:55:00,
2013-01-09 01:00:00,35.9,33.0,30.23,WNW,287,0.0,1.0,89,0.00,,,0.00,VWS V14.01,2013-01-09 09:00:00,
2013-01-09 01:05:00,36.0,33.4,30.23,WNW,287,0.0,1.0,90,0.00,,,0.00,VWS V14.01,2013-01-09 09:05:00,
2013-01-09 01:10:00,36.1,33.2,30.23,WNW,287,0.0,1.0,89,0.00,,,0.00,VWS V14.01,2013-01-09 09:10:00,
2013-01-09 01:15:00,36.0,33.1,30.23,WNW,287,0.0,0.0,89,0.00,,,0.00,VWS V14.01,2013-01-09 09:15:00,
2013-01-09 01:20:00,36.2,33.6,30.23,WNW,287,0.0,1.0,90,0.00,,,0.00,VWS V14.01,2013-01-09 09:20:00,
2013-01-09 01:25:00,36.2,33.3,30.23,WNW,287,0.0,1.0,89,0.00,,,0.00,VWS V14.01,2013-01-09 09:25:00,
2013-01-09 01:30:00,36.4,33.8,30.23,WNW,287,0.0,0.0,90,0.00,,,0.00,VWS V14.01,2013-01-09 09:30:00,
2013-01-09 01:35:00,36.5,33.8,30.23,WNW,287,0.0,0.0,90,0.00,,,0.00,VWS V14.01,2013-01-09 09:35:00,
2013-01-09 01:40:00,36.7,34.0,30.23,WNW,287,0.0,0.0,90,0.00,,,0.00,VWS V14.01,2013-01-09 09:40:00,
2013-01-09 01:45:00,36.7,34.0,30.23,WNW,287,0.0,0.0,90,0.00,,,0.00,VWS V14.01,2013-01-09 09:45:00,
2013-01-09 01:50:00,36.9,34.0,30.24,WNW,287,0.0,0.0,89,0.00,,,0.00,VWS V14.01,2013-01-09 09:50:00,
2013-01-09 01:55:00,37.0,34.1,30.24,WNW,287,0.0,0.0,89,0.00,,,0.00,VWS V14.01,2013-01-09 09:55:00,
2013-01-09 02:00:00,37.1,34.4,30.24,WNW,287,0.0,0.0,90,0.00,,,0.00,VWS V14.01,2013-01-09 10:00:00,
2013-01-09 02:05:00,37.1,34.4,30.24,WNW,287,0.0,0.0,90,0.00,,,0.00,VWS V14.01,2013-01-09 10:05:00,
2013-01-09 02:10:00,37.1,34.2,30.24,WNW,287,0.0,1.0,89,0.00,,,0.00,VWS V14.01,2013-01-09 10:10:00,
2013-01-09 02:15:00,37.1,34.4,30.23,WNW,287,0.0,0.0,90,0.00,,,0.00,VWS V14.01,2013-01-09 10:15:00,
2013-01-09 02:20:00,37.3,34.6,30.23,WNW,287,0.0,0.0,90,0.00,,,0.00,VWS V14.01,2013-01-09 10:20:00,
2013-01-09 02:25:00,37.3,34.4,30.23,WNW,287,0.0,0.0,89,0.00,,,0.00,VWS V14.01,2013-01-09 10:25:00,
2013-01-09 02:30:00,37.2,34.3,30.23,WNW,287,0.0,0.0,89,0.00,,,0.00,VWS V14.01,2013-01-09 10:30:00,
2013-01-09 02:35:00,37.2,34.3,30.23,WNW,287,0.0,1.0,89,0.00,,,0.00,VWS V14.01,2013-01-09 10:35:00,
2013-01-09 02:40:00,37.2,34.3,30.23,WNW,287,0.0,1.0,89,0.00,,,0.00,VWS V14.01,2013-01-09 10:40:00,
2013-01-09 02:45:00,37.2,34.3,30.23,WNW,287,0.0,0.0,89,0.00,,,0.00,VWS V14.01,2013-01-09 10:45:00,
2013-01-09 02:50:00,37.2,34.3,30.22,WNW,287,0.0,0.0,89,0.00,,,0.00,VWS V14.01,2013-01-09 10:50:00,
2013-01-09 02:55:00,37.9,35.0,30.23,WNW,287,0.0,1.0,89,0.00,,,0.00,VWS V14.01,2013-01-09 10:55:00,
2013-01-09 03:00:00,37.9,35.0,30.22,WNW,287,0.0,0.0,89,0.00,,,0.00,VWS V14.01,2013-01-09 11:00:00,
2013-01-09 03:05:00,38.0,35.0,30.22,WNW,287,0.0,1.0,89,0.00,,,0.00,VWS V14.01,2013-01-09 11:05:00,
2013-01-09 03:10:00,37.9,35.0,30.22,WNW,287,0.0,1.0,89,0.00,,,0.00,VWS V14.01,2013-01-09 11:10:00,
2013-01-09 03:15:00,38.0,35.0,30.21,WNW,287,0.0,0.0,89,0.00,,,0.00,VWS V14.01,2013-01-09 11:15:00,
2013-01-09 03:20:00,37.9,35.0,30.21,WNW,287,0.0,0.0,89,0.00,,,0.00,VWS V14.01,2013-01-09 11:20:00,
2013-01-09 03:25:00,37.9,35.0,30.21,WNW,287,0.0,1.0,89,0.00,,,0.00,VWS V14.01,2013-01-09 11:25:00,
2013-01-09 03:30:00,37.9,35.0,30.21,WNW,287,0.0,0.0,89,0.00,,,0.00,VWS V14.01,2013-01-09 11:30:00,
2013-01-09 03:35:00,37.8,34.9,30.21,WNW,287,1.0,2.0,89,0.00,,,0.00,VWS V14.01,2013-01-09 11:35:00,
2013-01-09 03:40:00,37.7,34.8,30.20,WNW,287,0.0,2.0,89,0.00,,,0.00,VWS V14.01,2013-01-09 11:40:00,
2013-01-09 03:45:00,37.6,34.7,30.20,WNW,287,0.0,0.0,89,0.00,,,0.00,VWS V14.01,2013-01-09 11:45:00,
2013-01-09 03:50:00,37.6,34.7,30.20,WNW,287,0.0,0.0,89,0.00,,,0.00,VWS V14.01,2013-01-09 11:50:00,
2013-01-09 03:55:00,37.9,35.0,30.19,WNW,287,0.0,1.0,89,0.00,,,0.00,VWS V14.01,2013-01-09 11:55:00,
2013-01-09 04:00:00,37.5,34.3,30.19,WNW,287,0.0,0.0,88,0.00,,,0.00,VWS V14.01,2013-01-09 12:00:00,
2013-01-09 04:05:00,37.5,34.6,30.19,WNW,287,0.0,1.0,89,0.00,,,0.00,VWS V14.01,2013-01-09 12:05:00,
2013-01-09 04:10:00,37.3,34.4,30.18,WNW,287,0.0,1.0,89,0.00,,,0.00,VWS V14.01,2013-01-09 12:10:00,
2013-01-09 04:15:00,37.2,34.3,30.18,WNW,287,0.0,0.0,89,0.00,,,0.00,VWS V14.01,2013-01-09 12:15:00,
2013-01-09 04:20:00,37.1,34.2,30.18,WNW,287,0.0,0.0,89,0.00,,,0.00,VWS V14.01,2013-01-09 12:20:00,
2013-01-09 04:25:00,37.4,34.5,30.18,WNW,287,0.0,0.0,89,0.00,,,0.00,VWS V14.01,2013-01-09 12:25:00,
2013-01-09 04:30:00,37.2,34.3,30.18,WNW,287,0.0,1.0,89,0.00,,,0.00,VWS V14.01,2013-01-09 12:30:00,
2013-01-09 04:35:00,37.3,34.4,30.18,WNW,287,0.0,1.0,89,0.00,,,0.00,VWS V14.01,2013-01-09 12:35:00,
2013-01-09 04:40:00,37.5,34.6,30.17,WNW,287,0.0,1.0,89,0.00,,,0.00,VWS V14.01,2013-01-09 12:40:00,
2013-01-09 04:45:00,37.5,34.6,30.18,WNW,287,0.0,0.0,89,0.00,,,0.00,VWS V14.01,2013-01-09 12:45:00,
2013-01-09 04:51:00,37.9,35.0,30.18,WNW,287,0.0,0.0,89,0.00,,,0.00,VWS V14.01,2013-01-09 12:51:00,
2013-01-09 04:56:00,37.9,35.0,30.17,WNW,287,0.0,1.0,89,0.00,,,0.00,VWS V14.01,2013-01-09 12:56:00,
2013-01-09 05:00:00,38.0,35.0,30.17,WNW,287,0.0,1.0,89,0.00,,,0.00,VWS V14.01,2013-01-09 13:00:00,
2013-01-09 05:01:00,37.9,35.0,30.17,WNW,287,0.0,0.0,89,0.00,,,0.00,VWS V14.01,2013-01-09 13:01:00,
2013-01-09 05:06:00,38.0,35.0,30.17,WNW,287,0.0,0.0,89,0.00,,,0.00,VWS V14.01,2013-01-09 13:06:00,
2013-01-09 05:11:00,38.1,35.2,30.17,WNW,287,0.0,0.0,89,0.00,,,0.00,VWS V14.01,2013-01-09 13:11:00,
2013-01-09 05:15:00,38.1,35.2,30.17,WNW,287,0.0,0.0,89,0.00,,,0.00,VWS V14.01,2013-01-09 13:15:00,
2013-01-09 05:16:00,38.0,35.0,30.17,WNW,287,0.0,1.0,89,0.00,,,0.00,VWS V14.01,2013-01-09 13:16:00,
2013-01-09 05:21:00,38.1,35.2,30.17,WNW,287,0.0,1.0,89,0.00,,,0.00,VWS V14.01,2013-01-09 13:21:00,
2013-01-09 05:26:00,38.1,35.2,30.17,WNW,287,0.0,1.0,89,0.00,,,0.00,VWS V14.01,2013-01-09 13:26:00,
2013-01-09 05:30:00,38.0,35.0,30.17,WNW,287,0.0,1.0,89,0.00,,,0.00,VWS V14.01,2013-01-09 13:30:00,
2013-01-09 05:31:00,38.0,35.0,30.17,WNW,287,0.0,0.0,89,0.00,,,0.00,VWS V14.01,2013-01-09 13:31:00,
2013-01-09 05:36:00,38.0,35.0,30.17,WNW,287,0.0,1.0,89,0.00,,,0.00,VWS V14.01,2013-01-09 13:36:00,
2013-01-09 05:41:00,38.0,35.0,30.17,WNW,287,0.0,1.0,89,0.00,,,0.00,VWS V14.01,2013-01-09 13:41:00,
2013-01-09 05:45:00,38.1,35.2,30.18,WNW,287,0.0,1.0,89,0.00,,,0.00,VWS V14.01,2013-01-09 13:45:00,
2013-01-09 05:46:00,38.4,35.7,30.18,WNW,287,0.0,0.0,90,0.00,,,0.00,VWS V14.01,2013-01-09 13:46:00,
2013-01-09 05:51:00,38.0,34.8,30.18,WNW,287,0.0,0.0,88,0.00,,,0.00,VWS V14.01,2013-01-09 13:51:00,
2013-01-09 05:56:00,37.9,35.0,30.18,WNW,287,0.0,1.0,89,0.00,,,0.00,VWS V14.01,2013-01-09 13:56:00,
2013-01-09 06:00:00,37.9,35.0,30.18,WNW,287,0.0,1.0,89,0.00,,,0.00,VWS V14.01,2013-01-09 14:00:00,
2013-01-09 06:01:00,38.0,35.0,30.18,WNW,287,0.0,0.0,89,0.00,,,0.00,VWS V14.01,2013-01-09 14:01:00,
2013-01-09 06:06:00,37.7,34.5,30.18,WNW,287,0.0,0.0,88,0.00,,,0.00,VWS V14.01,2013-01-09 14:06:00,
2013-01-09 06:11:00,37.8,34.9,30.18,WNW,287,0.0,0.0,89,0.00,,,0.00,VWS V14.01,2013-01-09 14:11:00,
2013-01-09 06:15:00,37.7,34.8,30.18,WNW,287,0.0,0.0,89,0.00,,,0.00,VWS V14.01,2013-01-09 14:15:00,
2013-01-09 06:16:00,37.7,34.8,30.18,WNW,287,0.0,0.0,89,0.00,,,0.00,VWS V14.01,2013-01-09 14:16:00,
2013-01-09 06:21:00,37.7,34.8,30.18,WNW,287,0.0,1.0,89,0.00,,,0.00,VWS V14.01,2013-01-09 14:21:00,
2013-01-09 06:26:00,37.7,34.8,30.18,WNW,287,0.0,1.0,89,0.00,,,0.00,VWS V14.01,2013-01-09 14:26:00,
2013-01-09 06:30:00,37.8,34.8,30.18,WNW,287,0.0,1.0,89,0.00,,,0.00,VWS V14.01,2013-01-09 14:30:00,
2013-01-09 06:31:00,37.8,34.9,30.18,WNW,287,0.0,0.0,89,0.00,,,0.00,VWS V14.01,2013-01-09 14:31:00,
2013-01-09 06:36:00,37.5,34.3,30.18,WNW,287,0.0,1.0,88,0.00,,,0.00,VWS V14.01,2013-01-09 14:36:00,
2013-01-09 06:41:00,37.6,34.7,30.18,WNW,287,0.0,1.0,89,0.00,,,0.00,VWS V14.01,2013-01-09 14:41:00,
2013-01-09 06:45:00,37.8,34.8,30.18,WNW,287,0.0,1.0,89,0.00,,,0.00,VWS V14.01,2013-01-09 14:45:00,
2013-01-09 06:46:00,37.9,35.0,30.18,WNW,287,0.0,0.0,89,0.00,,,0.00,VWS V14.01,2013-01-09 14:46:00,
2013-01-09 06:51:00,37.5,34.3,30.18,WNW,287,0.0,0.0,88,0.00,,,0.00,VWS V14.01,2013-01-09 14:51:00,
2013-01-09 06:56:00,37.2,34.3,30.18,WNW,287,0.0,1.0,89,0.00,,,0.00,VWS V14.01,2013-01-09 14:56:00,
2013-01-09 07:00:00,36.8,33.6,30.18,WNW,287,0.0,1.0,88,0.00,,,0.00,VWS V14.01,2013-01-09 15:00:00,
2013-01-09 07:01:00,36.7,33.8,30.18,WNW,287,0.0,0.0,89,0.00,,,0.00,VWS V14.01,2013-01-09 15:01:00,
2013-01-09 07:06:00,36.8,33.9,30.18,WNW,287,0.0,1.0,89,0.00,,,0.00,VWS V14.01,2013-01-09 15:06:00,
2013-01-09 07:11:00,36.9,34.0,30.18,WNW,287,0.0,1.0,89,0.00,,,0.00,VWS V14.01,2013-01-09 15:11:00,
2013-01-09 07:15:00,37.2,34.3,30.18,WNW,287,0.0,1.0,89,0.00,,,0.00,VWS V14.01,2013-01-09 15:15:00,
2013-01-09 07:16:00,37.1,34.2,30.18,WNW,287,0.0,0.0,89,0.00,,,0.00,VWS V14.01,2013-01-09 15:16:00,
2013-01-09 07:21:00,37.0,34.1,30.18,WNW,287,0.0,1.0,89,0.00,,,0.00,VWS V14.01,2013-01-09 15:21:00,
2013-01-09 07:26:00,37.1,34.2,30.18,WNW,287,0.0,1.0,89,0.00,,,0.00,VWS V14.01,2013-01-09 15:26:00,
2013-01-09 07:30:00,36.9,33.7,30.17,WNW,287,0.0,1.0,88,0.00,,,0.00,VWS V14.01,2013-01-09 15:30:00,
2013-01-09 07:31:00,36.8,33.6,30.17,WNW,287,0.0,0.0,88,0.00,,,0.00,VWS V14.01,2013-01-09 15:31:00,
2013-01-09 07:36:00,36.9,34.0,30.18,WNW,287,0.0,1.0,89,0.00,,,0.00,VWS V14.01,2013-01-09 15:36:00,
2013-01-09 07:41:00,37.0,33.8,30.17,WNW,287,0.0,1.0,88,0.00,,,0.00,VWS V14.01,2013-01-09 15:41:00,
2013-01-09 07:45:00,37.0,34.1,30.17,WNW,287,0.0,1.0,89,0.00,,,0.00,VWS V14.01,2013-01-09 15:45:00,
2013-01-09 07:46:00,37.0,34.1,30.17,WNW,287,0.0,0.0,89,0.00,,,0.00,VWS V14.01,2013-01-09 15:46:00,
2013-01-09 07:51:00,36.8,33.9,30.17,WNW,287,0.0,1.0,89,0.00,,,0.00,VWS V14.01,2013-01-09 15:51:00,
2013-01-09 07:56:00,36.9,34.0,30.17,WNW,287,0.0,1.0,89,0.00,,,0.00,VWS V14.01,2013-01-09 15:56:00,
2013-01-09 08:00:00,37.3,34.4,30.17,WNW,287,0.0,1.0,89,0.00,,,0.00,VWS V14.01,2013-01-09 16:00:00,
2013-01-09 08:01:00,37.3,34.4,30.17,WNW,287,0.0,0.0,89,0.00,,,0.00,VWS V14.01,2013-01-09 16:01:00,
2013-01-09 08:06:00,37.7,34.8,30.17,WNW,287,0.0,1.0,89,0.00,,,0.00,VWS V14.01,2013-01-09 16:06:00,
2013-01-09 08:11:00,38.0,35.0,30.17,WNW,287,0.0,1.0,89,0.00,,,0.00,VWS V14.01,2013-01-09 16:11:00,
2013-01-09 08:15:00,38.4,35.5,30.17,WNW,287,0.0,1.0,89,0.00,,,0.00,VWS V14.01,2013-01-09 16:15:00,
2013-01-09 08:16:00,38.5,35.5,30.17,WNW,287,0.0,0.0,89,0.00,,,0.00,VWS V14.01,2013-01-09 16:16:00,
2013-01-09 08:21:00,39.3,36.3,30.17,WNW,287,0.0,0.0,89,0.00,,,0.00,VWS V14.01,2013-01-09 16:21:00,
2013-01-09 08:26:00,39.8,36.8,30.17,WNW,287,0.0,1.0,89,0.00,,,0.00,VWS V14.01,2013-01-09 16:26:00,
2013-01-09 08:30:00,40.2,36.9,30.17,WNW,287,0.0,1.0,88,0.00,,,0.00,VWS V14.01,2013-01-09 16:30:00,
2013-01-09 08:31:00,40.3,37.0,30.17,WNW,287,0.0,0.0,88,0.00,,,0.00,VWS V14.01,2013-01-09 16:31:00,
2013-01-09 08:36:00,40.6,37.0,30.16,WNW,287,0.0,1.0,87,0.00,,,0.00,VWS V14.01,2013-01-09 16:36:00,
2013-01-09 08:41:00,40.6,37.0,30.16,WNW,287,0.0,1.0,87,0.00,,,0.00,VWS V14.01,2013-01-09 16:41:00,
2013-01-09 08:45:00,40.6,37.0,30.16,WNW,287,0.0,1.0,87,0.00,,,0.00,VWS V14.01,2013-01-09 16:45:00,
2013-01-09 08:46:00,40.6,37.0,30.16,WNW,287,0.0,0.0,87,0.00,,,0.00,VWS V14.01,2013-01-09 16:46:00,
2013-01-09 08:51:00,40.6,37.0,30.16,WNW,287,0.0,0.0,87,0.00,,,0.00,VWS V14.01,2013-01-09 16:51:00,
2013-01-09 08:56:00,40.6,37.0,30.16,WNW,287,0.0,0.0,87,0.00,,,0.00,VWS V14.01,2013-01-09 16:56:00,
2013-01-09 09:00:00,40.6,37.0,30.16,WNW,287,0.0,0.0,87,0.00,,,0.00,VWS V14.01,2013-01-09 17:00:00,
2013-01-09 09:01:00,45.0,41.1,30.15,WNW,287,0.0,0.0,86,0.00,,,0.00,VWS V14.01,2013-01-09 17:01:00,
2013-01-09 09:06:00,45.7,42.1,30.15,WNW,287,0.0,0.0,87,0.00,,,0.00,VWS V14.01,2013-01-09 17:06:00,
2013-01-09 09:11:00,46.6,42.6,30.15,WNW,287,0.0,0.0,86,0.00,,,0.00,VWS V14.01,2013-01-09 17:11:00,
2013-01-09 09:15:00,47.9,44.2,30.15,WNW,287,0.0,0.0,87,0.00,,,0.00,VWS V14.01,2013-01-09 17:15:00,
2013-01-09 09:16:00,48.0,44.0,30.15,WNW,287,0.0,0.0,86,0.00,,,0.00,VWS V14.01,2013-01-09 17:16:00,
2013-01-09 09:21:00,49.0,45.0,30.15,WNW,287,0.0,0.0,86,0.00,,,0.00,VWS V14.01,2013-01-09 17:21:00,
2013-01-09 09:26:00,49.9,45.0,30.15,WNW,287,0.0,0.0,83,0.00,,,0.00,VWS V14.01,2013-01-09 17:26:00,
2013-01-09 09:30:00,51.0,46.3,30.14,WNW,287,0.0,0.0,84,0.00,,,0.00,VWS V14.01,2013-01-09 17:30:00,
2013-01-09 09:31:00,51.2,46.2,30.14,WNW,287,0.0,0.0,83,0.00,,,0.00,VWS V14.01,2013-01-09 17:31:00,
2013-01-09 09:36:00,51.9,47.2,30.14,WNW,287,0.0,0.0,84,0.00,,,0.00,VWS V14.01,2013-01-09 17:36:00,
2013-01-09 09:41:00,53.3,48.3,30.14,WNW,287,0.0,0.0,83,0.00,,,0.00,VWS V14.01,2013-01-09 17:41:00,
2013-01-09 09:45:00,53.9,47.9,30.14,WNW,287,0.0,0.0,80,0.00,,,0.00,VWS V14.01,2013-01-09 17:45:00,
2013-01-09 09:46:00,54.0,48.0,30.14,WNW,287,0.0,0.0,80,0.00,,,0.00,VWS V14.01,2013-01-09 17:46:00,
2013-01-09 09:51:00,55.8,49.7,30.14,WNW,287,0.0,1.0,80,0.00,,,0.00,VWS V14.01,2013-01-09 17:51:00,
2013-01-09 09:56:00,56.5,50.1,30.13,WNW,287,0.0,1.0,79,0.00,,,0.00,VWS V14.01,2013-01-09 17:56:00,
2013-01-09 10:00:00,57.3,50.2,30.13,WNW,287,0.0,1.0,77,0.00,,,0.00,VWS V14.01,2013-01-09 18:00:00,
2013-01-09 10:01:00,58.1,39.1,30.13,WNW,287,0.0,0.0,49,0.00,,,0.00,VWS V14.01,2013-01-09 18:01:00,
2013-01-09 10:06:00,59.7,40.5,30.13,SW,224,0.0,4.0,49,0.00,,,0.00,VWS V14.01,2013-01-09 18:06:00,
2013-01-09 10:11:00,61.6,37.7,30.13,SSE,161,0.0,4.0,41,0.00,,,0.00,VWS V14.01,2013-01-09 18:11:00,
2013-01-09 10:15:00,60.5,45.7,30.12,SE,139,1.0,4.0,58,0.00,,,0.00,VWS V14.01,2013-01-09 18:15:00,
2013-01-09 10:16:00,60.3,41.6,30.12,SE,139,0.0,2.0,50,0.00,,,0.00,VWS V14.01,2013-01-09 18:16:00,
2013-01-09 10:21:00,61.7,35.2,30.12,SE,130,2.0,3.0,37,0.00,,,0.00,VWS V14.01,2013-01-09 18:21:00,
2013-01-09 10:26:00,62.0,38.7,30.12,South,170,0.0,3.0,42,0.00,,,0.00,VWS V14.01,2013-01-09 18:26:00,
2013-01-09 10:30:00,62.7,32.4,30.12,South,170,0.0,3.0,32,0.00,,,0.00,VWS V14.01,2013-01-09 18:30:00,
2013-01-09 10:31:00,63.0,32.7,30.12,South,170,0.0,0.0,32,0.00,,,0.00,VWS V14.01,2013-01-09 18:31:00,
2013-01-09 10:36:00,62.6,36.0,30.12,WSW,244,1.0,4.0,37,0.00,,,0.00,VWS V14.01,2013-01-09 18:36:00,
2013-01-09 10:41:00,62.7,38.0,30.12,WSW,251,0.0,4.0,40,0.00,,,0.00,VWS V14.01,2013-01-09 18:41:00,
2013-01-09 10:42:00,62.8,38.1,30.11,SW,235,0.0,4.0,40,0.00,,,0.00,VWS V14.01,2013-01-09 18:42:00,
2013-01-09 10:44:00,62.9,36.2,30.11,ESE,116,4.0,4.0,37,0.00,,,0.00,VWS V14.01,2013-01-09 18:44:00,
2013-01-09 10:45:00,62.9,37.6,30.11,SE,132,4.0,5.0,39,0.00,,,0.00,VWS V14.01,2013-01-09 18:45:00,
2013-01-09 10:48:00,62.6,39.2,30.11,SE,139,4.0,5.0,42,0.00,,,0.00,VWS V14.01,2013-01-09 18:48:00,
2013-01-09 10:49:00,62.6,38.0,30.11,South,191,1.0,5.0,40,0.00,,,0.00,VWS V14.01,2013-01-09 18:49:00,
2013-01-09 10:54:00,62.5,33.8,30.11,SE,143,2.0,5.0,34,0.00,,,0.00,VWS V14.01,2013-01-09 18:54:00,
2013-01-09 10:59:00,62.3,35.0,30.11,SSW,193,2.0,5.0,36,0.00,,,0.00,VWS V14.01,2013-01-09 18:59:00,
2013-01-09 11:00:00,62.4,32.2,30.11,SSE,152,3.0,5.0,32,0.00,,,0.00,VWS V14.01,2013-01-09 19:00:00,
2013-01-09 11:04:00,62.3,32.1,30.10,South,173,0.0,5.0,32,0.00,,,0.00,VWS V14.01,2013-01-09 19:04:00,
2013-01-09 11:09:00,62.4,32.2,30.10,SSE,164,1.0,6.0,32,0.00,,,0.00,VWS V14.01,2013-01-09 19:09:00,
2013-01-09 11:14:00,62.5,32.3,30.09,South,187,3.0,6.0,32,0.00,,,0.00,VWS V14.01,2013-01-09 19:14:00,
2013-01-09 11:15:00,62.5,33.0,30.09,South,187,1.0,6.0,33,0.00,,,0.00,VWS V14.01,2013-01-09 19:15:00,
2013-01-09 11:19:00,62.3,33.6,30.09,SE,139,0.0,3.0,34,0.00,,,0.00,VWS V14.01,2013-01-09 19:19:00,
2013-01-09 11:24:00,62.5,33.0,30.09,SSW,209,1.0,4.0,33,0.00,,,0.00,VWS V14.01,2013-01-09 19:24:00,
2013-01-09 11:29:00,62.7,33.2,30.08,SW,230,2.0,4.0,33,0.00,,,0.00,VWS V14.01,2013-01-09 19:29:00,
2013-01-09 11:30:00,62.6,32.3,30.08,SSW,201,2.0,4.0,32,0.00,,,0.00,VWS V14.01,2013-01-09 19:30:00,
2013-01-09 11:34:00,62.5,33.0,30.08,SSW,201,1.0,4.0,33,0.00,,,0.00,VWS V14.01,2013-01-09 19:34:00,
2013-01-09 11:39:00,62.5,33.0,30.08,WNW,294,0.0,4.0,33,0.00,,,0.00,VWS V14.01,2013-01-09 19:39:00,
2013-01-09 11:44:00,62.9,32.6,30.08,South,191,4.0,6.0,32,0.00,,,0.00,VWS V14.01,2013-01-09 19:44:00,
2013-01-09 11:45:00,62.8,32.5,30.08,SE,128,0.0,6.0,32,0.00,,,0.00,VWS V14.01,2013-01-09 19:45:00,
2013-01-09 11:49:00,62.8,33.3,30.08,ESE,122,0.0,3.0,33,0.00,,,0.00,VWS V14.01,2013-01-09 19:49:00,
2013-01-09 11:54:00,63.0,34.9,30.07,SE,135,2.0,4.0,35,0.00,,,0.00,VWS V14.01,2013-01-09 19:54:00,
2013-01-09 11:59:00,63.5,32.3,30.07,West,272,0.0,4.0,31,0.00,,,0.00,VWS V14.01,2013-01-09 19:59:00,
2013-01-09 12:00:00,63.5,33.9,30.07,WSW,253,2.0,4.0,33,0.00,,,0.00,VWS V14.01,2013-01-09 20:00:00,
2013-01-09 12:04:00,63.4,32.3,30.07,South,173,0.0,5.0,31,0.00,,,0.00,VWS V14.01,2013-01-09 20:04:00,
2013-01-09 12:09:00,63.0,32.7,30.07,SE,141,1.0,6.0,32,0.00,,,0.00,VWS V14.01,2013-01-09 20:09:00,
2013-01-09 12:14:00,62.8,32.5,30.07,SSE,150,0.0,6.0,32,0.00,,,0.00,VWS V14.01,2013-01-09 20:14:00,
2013-01-09 12:15:00,62.7,32.4,30.07,SSE,150,0.0,6.0,32,0.00,,,0.00,VWS V14.01,2013-01-09 20:15:00,
2013-01-09 12:19:00,62.5,32.3,30.07,SSE,166,0.0,3.0,32,0.00,,,0.00,VWS V14.01,2013-01-09 20:19:00,
2013-01-09 12:24:00,62.5,34.5,30.06,SSE,158,1.0,4.0,35,0.00,,,0.00,VWS V14.01,2013-01-09 20:24:00,
2013-01-09 12:29:00,62.4,34.4,30.06,WSW,237,3.0,6.0,35,0.00,,,0.00,VWS V14.01,2013-01-09 20:29:00,
2013-01-09 12:30:00,62.4,32.9,30.06,WSW,250,1.0,6.0,33,0.00,,,0.00,VWS V14.01,2013-01-09 20:30:00,
2013-01-09 12:34:00,62.3,33.6,30.06,SSE,160,1.0,7.0,34,0.00,,,0.00,VWS V14.01,2013-01-09 20:34:00,
2013-01-09 12:39:00,62.3,32.9,30.06,SE,145,1.0,7.0,33,0.00,,,0.00,VWS V14.01,2013-01-09 20:39:00,
2013-01-09 12:44:00,62.5,33.0,30.06,South,190,4.0,9.0,33,0.00,,,0.00,VWS V14.01,2013-01-09 20:44:00,
2013-01-09 12:45:00,62.5,32.3,30.06,SSW,196,1.0,9.0,32,0.00,,,0.00,VWS V14.01,2013-01-09 20:45:00,
2013-01-09 12:49:00,62.3,32.1,30.05,SE,139,4.0,7.0,32,0.00,,,0.00,VWS V14.01,2013-01-09 20:49:00,
2013-01-09 12:54:00,62.1,34.2,30.05,ESE,123,1.0,7.0,35,0.00,,,0.00,VWS V14.01,2013-01-09 20:54:00,
2013-01-09 12:59:00,62.3,32.1,30.05,West,267,0.0,7.0,32,0.00,,,0.00,VWS V14.01,2013-01-09 20:59:00,
2013-01-09 13:00:00,62.3,33.6,30.05,South,176,2.0,7.0,34,0.00,,,0.00,VWS V14.01,2013-01-09 21:00:00,
2013-01-09 13:04:00,62.2,32.8,30.05,South,184,2.0,4.0,33,0.00,,,0.00,VWS V14.01,2013-01-09 21:04:00,
2013-01-09 13:09:00,62.0,31.8,30.05,South,177,3.0,4.0,32,0.00,,,0.00,VWS V14.01,2013-01-09 21:09:00,
2013-01-09 13:14:00,61.9,32.5,30.05,SSE,160,0.0,5.0,33,0.00,,,0.00,VWS V14.01,2013-01-09 21:14:00,
2013-01-09 13:15:00,61.8,30.9,30.05,SSE,160,0.0,5.0,31,0.00,,,0.00,VWS V14.01,2013-01-09 21:15:00,
2013-01-09 13:19:00,61.9,31.7,30.04,SSE,165,2.0,3.0,32,0.00,,,0.00,VWS V14.01,2013-01-09 21:19:00,
2013-01-09 13:24:00,62.0,33.3,30.04,ESE,109,0.0,3.0,34,0.00,,,0.00,VWS V14.01,2013-01-09 21:24:00,
2013-01-09 13:29:00,62.2,33.5,30.04,SSE,152,1.0,4.0,34,0.00,,,0.00,VWS V14.01,2013-01-09 21:29:00,
2013-01-09 13:30:00,62.2,33.5,30.04,South,174,0.0,4.0,34,0.00,,,0.00,VWS V14.01,2013-01-09 21:30:00,
2013-01-09 13:34:00,62.2,33.5,30.03,South,172,1.0,3.0,34,0.00,,,0.00,VWS V14.01,2013-01-09 21:34:00,
2013-01-09 13:39:00,62.1,33.4,30.03,SE,131,1.0,6.0,34,0.00,,,0.00,VWS V14.01,2013-01-09 21:39:00,
2013-01-09 13:44:00,61.7,30.8,30.03,SSE,152,2.0,6.0,31,0.00,,,0.00,VWS V14.01,2013-01-09 21:44:00,
2013-01-09 13:45:00,61.6,29.9,30.03,ESE,117,1.0,6.0,30,0.00,,,0.00,VWS V14.01,2013-01-09 21:45:00,
2013-01-09 13:49:00,61.3,30.4,30.03,ESE,122,0.0,4.0,31,0.00,,,0.00,VWS V14.01,2013-01-09 21:49:00,
2013-01-09 13:54:00,61.4,29.7,30.03,SSW,203,0.0,4.0,30,0.00,,,0.00,VWS V14.01,2013-01-09 21:54:00,
2013-01-09 13:59:00,61.4,29.7,30.03,SSW,199,2.0,5.0,30,0.00,,,0.00,VWS V14.01,2013-01-09 21:59:00,
2013-01-09 14:00:00,61.4,30.5,30.03,South,173,3.0,5.0,31,0.00,,,0.00,VWS V14.01,2013-01-09 22:00:00,
2013-01-09 14:04:00,61.2,31.1,30.03,ESE,112,1.0,4.0,32,0.00,,,0.00,VWS V14.01,2013-01-09 22:04:00,
2013-01-09 14:09:00,60.9,32.4,30.03,SE,141,0.0,4.0,34,0.00,,,0.00,VWS V14.01,2013-01-09 22:09:00,
2013-01-09 14:14:00,60.7,32.2,30.03,South,174,2.0,4.0,34,0.00,,,0.00,VWS V14.01,2013-01-09 22:14:00,
2013-01-09 14:15:00,60.6,31.4,30.03,South,172,2.0,4.0,33,0.00,,,0.00,VWS V14.01,2013-01-09 22:15:00,
2013-01-09 14:19:00,60.5,31.3,30.03,SE,126,1.0,2.0,33,0.00,,,0.00,VWS V14.01,2013-01-09 22:19:00,
2013-01-09 14:24:00,60.2,32.5,30.03,SE,145,1.0,3.0,35,0.00,,,0.00,VWS V14.01,2013-01-09 22:24:00,
2013-01-09 14:29:00,59.9,31.5,30.03,SE,146,0.0,4.0,34,0.00,,,0.00,VWS V14.01,2013-01-09 22:29:00,
2013-01-09 14:30:00,59.9,31.5,30.03,SSE,153,2.0,4.0,34,0.00,,,0.00,VWS V14.01,2013-01-09 22:30:00,
2013-01-09 14:34:00,59.8,32.8,30.03,SE,131,0.0,3.0,36,0.00,,,0.00,VWS V14.01,2013-01-09 22:34:00,
2013-01-09 14:39:00,59.7,33.4,30.03,SSE,168,0.0,4.0,37,0.00,,,0.00,VWS V14.01,2013-01-09 22:39:00,
2013-01-09 14:44:00,59.5,34.5,30.03,South,184,0.0,4.0,39,0.00,,,0.00,VWS V14.01,2013-01-09 22:44:00,
2013-01-09 14:45:00,59.5,34.5,30.03,South,184,0.0,4.0,39,0.00,,,0.00,VWS V14.01,2013-01-09 22:45:00,
2013-01-09 14:49:00,59.5,33.2,30.02,South,183,0.0,1.0,37,0.00,,,0.00,VWS V14.01,2013-01-09 22:49:00,
2013-01-09 14:54:00,59.1,38.4,30.02,South,183,0.0,1.0,46,0.00,,,0.00,VWS V14.01,2013-01-09 22:54:00,
2013-01-09 14:59:00,58.7,36.3,30.02,SE,124,1.0,2.0,43,0.00,,,0.00,VWS V14.01,2013-01-09 22:59:00,
2013-01-09 15:00:00,58.7,38.0,30.02,SE,124,1.0,2.0,46,0.00,,,0.00,VWS V14.01,2013-01-09 23:00:00,
2013-01-09 15:04:00,58.3,38.7,30.02,SE,124,0.0,3.0,48,0.00,,,0.00,VWS V14.01,2013-01-09 23:04:00,
2013-01-09 15:09:00,57.7,38.7,30.02,SE,124,0.0,3.0,49,0.00,,,0.00,VWS V14.01,2013-01-09 23:09:00,
2013-01-09 15:14:00,57.6,39.6,30.01,SE,124,0.0,3.0,51,0.00,,,0.00,VWS V14.01,2013-01-09 23:14:00,
2013-01-09 15:15:00,57.6,39.6,30.02,SE,124,1.0,3.0,51,0.00,,,0.00,VWS V14.01,2013-01-09 23:15:00,
2013-01-09 15:19:00,57.4,40.9,30.01,SE,124,0.0,1.0,54,0.00,,,0.00,VWS V14.01,2013-01-09 23:19:00,
2013-01-09 15:24:00,57.3,40.8,30.01,East,92,0.0,3.0,54,0.00,,,0.00,VWS V14.01,2013-01-09 23:24:00,
2013-01-09 15:29:00,56.7,42.5,30.01,East,92,0.0,3.0,59,0.00,,,0.00,VWS V14.01,2013-01-09 23:29:00,
2013-01-09 15:30:00,56.6,42.0,30.01,East,92,0.0,3.0,58,0.00,,,0.00,VWS V14.01,2013-01-09 23:30:00,
2013-01-09 15:34:00,56.4,40.5,30.01,East,92,0.0,0.0,55,0.00,,,0.00,VWS V14.01,2013-01-09 23:34:00,
2013-01-09 15:39:00,56.3,41.3,30.01,East,92,0.0,0.0,57,0.00,,,0.00,VWS V14.01,2013-01-09 23:39:00,
2013-01-09 15:44:00,55.9,42.2,30.01,East,92,0.0,0.0,60,0.00,,,0.00,VWS V14.01,2013-01-09 23:44:00,
2013-01-09 15:45:00,55.8,42.6,30.00,East,92,0.0,0.0,61,0.00,,,0.00,VWS V14.01,2013-01-09 23:45:00,
2013-01-09 15:49:00,55.5,41.4,30.00,East,92,0.0,0.0,59,0.00,,,0.00,VWS V14.01,2013-01-09 23:49:00,
2013-01-09 15:54:00,55.2,42.0,30.00,East,92,0.0,0.0,61,0.00,,,0.00,VWS V14.01,2013-01-09 23:54:00,
2013-01-09 15:59:00,54.7,42.4,30.00,East,92,0.0,0.0,63,0.00,,,0.00,VWS V14.01,2013-01-09 23:59:00,
2013-01-09 16:00:00,54.6,42.3,30.00,East,92,0.0,0.0,63,0.00,,,0.00,VWS V14.01,2013-01-10 00:00:00,
2013-01-09 16:04:00,54.5,42.6,30.00,East,92,0.0,0.0,64,0.00,,,0.00,VWS V14.01,2013-01-10 00:04:00,
2013-01-09 16:09:00,53.8,42.3,30.00,East,92,0.0,0.0,65,0.00,,,0.00,VWS V14.01,2013-01-10 00:09:00,
2013-01-09 16:14:00,53.3,42.2,30.00,East,92,0.0,0.0,66,0.00,,,0.00,VWS V14.01,2013-01-10 00:14:00,
2013-01-09 16:15:00,53.2,42.2,30.00,East,92,0.0,0.0,66,0.00,,,0.00,VWS V14.01,2013-01-10 00:15:00,
2013-01-09 16:19:00,53.0,41.2,30.00,East,92,0.0,1.0,64,0.00,,,0.00,VWS V14.01,2013-01-10 00:19:00,
2013-01-09 16:24:00,52.7,41.3,29.99,East,92,0.0,1.0,65,0.00,,,0.00,VWS V14.01,2013-01-10 00:24:00,
2013-01-09 16:29:00,51.9,41.3,29.99,East,92,0.0,1.0,67,0.00,,,0.00,VWS V14.01,2013-01-10 00:29:00,
2013-01-09 16:30:00,51.9,40.9,29.99,East,92,0.0,1.0,66,0.00,,,0.00,VWS V14.01,2013-01-10 00:30:00,
2013-01-09 16:34:00,51.6,41.4,29.99,East,92,0.0,0.0,68,0.00,,,0.00,VWS V14.01,2013-01-10 00:34:00,
2013-01-09 16:39:00,51.1,40.2,29.98,East,92,0.0,0.0,66,0.00,,,0.00,VWS V14.01,2013-01-10 00:39:00,
2013-01-09 16:44:00,50.8,40.2,29.98,East,92,0.0,0.0,67,0.00,,,0.00,VWS V14.01,2013-01-10 00:44:00,
2013-01-09 16:45:00,50.8,39.9,29.98,East,92,0.0,0.0,66,0.00,,,0.00,VWS V14.01,2013-01-10 00:45:00,
2013-01-09 16:49:00,50.3,40.9,29.98,East,92,0.0,0.0,70,0.00,,,0.00,VWS V14.01,2013-01-10 00:49:00,
2013-01-09 16:54:00,49.8,40.4,29.98,East,92,0.0,0.0,70,0.00,,,0.00,VWS V14.01,2013-01-10 00:54:00,
2013-01-09 16:59:00,49.3,39.6,29.98,East,92,0.0,0.0,69,0.00,,,0.00,VWS V14.01,2013-01-10 00:59:00,
2013-01-09 17:00:00,49.1,40.5,29.98,East,92,0.0,0.0,72,0.00,,,0.00,VWS V14.01,2013-01-10 01:00:00,
2013-01-09 17:04:00,49.2,39.8,29.98,East,92,0.0,0.0,70,0.00,,,0.00,VWS V14.01,2013-01-10 01:04:00,
2013-01-09 17:09:00,49.0,40.0,29.98,East,92,0.0,0.0,71,0.00,,,0.00,VWS V14.01,2013-01-10 01:09:00,
2013-01-09 17:14:00,48.9,40.3,29.98,East,92,0.0,0.0,72,0.00,,,0.00,VWS V14.01,2013-01-10 01:14:00,
2013-01-09 17:15:00,48.8,40.2,29.98,East,92,0.0,0.0,72,0.00,,,0.00,VWS V14.01,2013-01-10 01:15:00,
2013-01-09 17:19:00,49.0,39.3,29.97,East,92,0.0,0.0,69,0.00,,,0.00,VWS V14.01,2013-01-10 01:19:00,
2013-01-09 17:24:00,48.8,39.8,29.97,East,92,0.0,1.0,71,0.00,,,0.00,VWS V14.01,2013-01-10 01:24:00,
2013-01-09 17:29:00,48.5,39.9,29.96,East,92,0.0,1.0,72,0.00,,,0.00,VWS V14.01,2013-01-10 01:29:00,
2013-01-09 17:30:00,48.4,39.8,29.96,East,92,0.0,1.0,72,0.00,,,0.00,VWS V14.01,2013-01-10 01:30:00,
2013-01-09 17:34:00,48.3,39.7,29.96,East,92,0.0,0.0,72,0.00,,,0.00,VWS V14.01,2013-01-10 01:34:00,
2013-01-09 17:39:00,48.3,39.3,29.97,East,92,0.0,0.0,71,0.00,,,0.00,VWS V14.01,2013-01-10 01:39:00,
2013-01-09 17:44:00,48.1,39.5,29.97,East,92,0.0,1.0,72,0.00,,,0.00,VWS V14.01,2013-01-10 01:44:00,
2013-01-09 17:45:00,48.1,39.2,29.97,East,92,0.0,1.0,71,0.00,,,0.00,VWS V14.01,2013-01-10 01:45:00,
2013-01-09 17:49:00,47.9,38.6,29.97,East,92,0.0,0.0,70,0.00,,,0.00,VWS V14.01,2013-01-10 01:49:00,
2013-01-09 17:54:00,48.0,39.1,29.97,ENE,67,0.0,3.0,71,0.00,,,0.00,VWS V14.01,2013-01-10 01:54:00,
2013-01-09 17:59:00,48.1,38.8,29.97,SSW,203,1.0,3.0,70,0.00,,,0.00,VWS V14.01,2013-01-10 01:59:00,
2013-01-09 18:00:00,48.2,38.5,29.97,SSW,210,1.0,3.0,69,0.00,,,0.00,VWS V14.01,2013-01-10 02:00:00,
2013-01-09 18:04:00,48.1,38.8,29.97,SSW,210,0.0,1.0,70,0.00,,,0.00,VWS V14.01,2013-01-10 02:04:00,
2013-01-09 18:09:00,48.2,38.5,29.97,WSW,243,3.0,3.0,69,0.00,,,0.00,VWS V14.01,2013-01-10 02:09:00,
2013-01-09 18:14:00,48.3,38.2,29.97,NW,304,0.0,3.0,68,0.00,,,0.00,VWS V14.01,2013-01-10 02:14:00,
2013-01-09 18:15:00,48.4,38.0,29.97,SE,143,1.0,4.0,67,0.00,,,0.00,VWS V14.01,2013-01-10 02:15:00,
2013-01-09 18:19:00,49.0,37.8,29.97,ESE,110,1.0,2.0,65,0.00,,,0.00,VWS V14.01,2013-01-10 02:19:00,
2013-01-09 18:24:00,49.5,39.8,29.97,WSW,247,6.0,9.0,69,0.00,,,0.00,VWS V14.01,2013-01-10 02:24:00,
2013-01-09 18:29:00,49.6,40.2,29.96,West,279,4.0,9.0,70,0.00,,,0.00,VWS V14.01,2013-01-10 02:29:00,
2013-01-09 18:30:00,49.6,40.2,29.96,WSW,258,3.0,9.0,70,0.00,,,0.00,VWS V14.01,2013-01-10 02:30:00,
2013-01-09 18:34:00,49.4,40.0,29.96,West,280,4.0,4.0,70,0.00,,,0.00,VWS V14.01,2013-01-10 02:34:00,
2013-01-09 18:39:00,48.6,39.6,29.96,West,264,0.0,4.0,71,0.00,,,0.00,VWS V14.01,2013-01-10 02:39:00,
2013-01-09 18:44:00,48.2,40.0,29.96,West,264,0.0,4.0,73,0.00,,,0.00,VWS V14.01,2013-01-10 02:44:00,
2013-01-09 18:45:00,48.1,39.9,29.96,West,264,0.0,4.0,73,0.00,,,0.00,VWS V14.01,2013-01-10 02:45:00,
2013-01-09 18:49:00,47.9,39.7,29.96,West,264,0.0,0.0,73,0.00,,,0.00,VWS V14.01,2013-01-10 02:49:00,
2013-01-09 18:54:00,47.2,39.3,29.95,West,264,0.0,0.0,74,0.00,,,0.00,VWS V14.01,2013-01-10 02:54:00,
2013-01-09 18:59:00,47.2,39.7,29.96,West,264,0.0,0.0,75,0.00,,,0.00,VWS V14.01,2013-01-10 02:59:00,
2013-01-09 19:00:00,47.1,39.6,29.96,West,264,0.0,0.0,75,0.00,,,0.00,VWS V14.01,2013-01-10 03:00:00,
2013-01-09 19:04:00,46.7,39.5,29.96,West,264,0.0,0.0,76,0.00,,,0.00,VWS V14.01,2013-01-10 03:04:00,
2013-01-09 19:09:00,46.4,39.6,29.96,West,264,0.0,0.0,77,0.00,,,0.00,VWS V14.01,2013-01-10 03:09:00,
2013-01-09 19:14:00,46.2,39.7,29.96,West,264,0.0,2.0,78,0.00,,,0.00,VWS V14.01,2013-01-10 03:14:00,
2013-01-09 19:15:00,46.2,39.7,29.96,West,264,0.0,2.0,78,0.00,,,0.00,VWS V14.01,2013-01-10 03:15:00,
2013-01-09 19:19:00,46.0,39.5,29.96,West,264,0.0,0.0,78,0.00,,,0.00,VWS V14.01,2013-01-10 03:19:00,
2013-01-09 19:24:00,46.2,39.7,29.96,West,270,0.0,5.0,78,0.00,,,0.00,VWS V14.01,2013-01-10 03:24:00,
2013-01-09 19:29:00,46.1,39.6,29.97,West,270,0.0,5.0,78,0.00,,,0.00,VWS V14.01,2013-01-10 03:29:00,
2013-01-09 19:30:00,46.1,39.6,29.97,West,270,0.0,5.0,78,0.00,,,0.00,VWS V14.01,2013-01-10 03:30:00,
2013-01-09 19:34:00,46.0,39.5,29.97,West,270,0.0,1.0,78,0.00,,,0.00,VWS V14.01,2013-01-10 03:34:00,
2013-01-09 19:39:00,45.8,39.7,29.97,West,270,0.0,1.0,79,0.00,,,0.00,VWS V14.01,2013-01-10 03:39:00,
2013-01-09 19:44:00,45.4,39.3,29.96,West,270,0.0,1.0,79,0.00,,,0.00,VWS V14.01,2013-01-10 03:44:00,
2013-01-09 19:45:00,45.4,39.6,29.96,West,270,0.0,1.0,80,0.00,,,0.00,VWS V14.01,2013-01-10 03:45:00,
2013-01-09 19:49:00,45.0,39.2,29.95,SW,216,0.0,1.0,80,0.00,,,0.00,VWS V14.01,2013-01-10 03:49:00,
2013-01-09 19:54:00,44.7,39.2,29.94,SE,131,1.0,2.0,81,0.00,,,0.00,VWS V14.01,2013-01-10 03:54:00,
2013-01-09 19:59:00,44.3,38.8,29.93,ESE,108,1.0,2.0,81,0.00,,,0.00,VWS V14.01,2013-01-10 03:59:00,
2013-01-09 20:00:00,44.3,38.8,29.93,ESE,122,2.0,2.0,81,0.00,,,0.00,VWS V14.01,2013-01-10 04:00:00,
2013-01-09 20:04:00,45.2,39.4,29.94,SW,235,2.0,5.0,80,0.00,,,0.00,VWS V14.01,2013-01-10 04:04:00,
2013-01-09 20:09:00,46.4,39.3,29.95,WSW,247,1.0,5.0,76,0.00,,,0.00,VWS V14.01,2013-01-10 04:09:00,
2013-01-09 20:14:00,45.9,39.4,29.95,WSW,247,1.0,5.0,78,0.00,,,0.00,VWS V14.01,2013-01-10 04:14:00,
2013-01-09 20:15:00,45.8,39.3,29.95,WSW,241,8.0,12.0,78,0.00,,,0.00,VWS V14.01,2013-01-10 04:15:00,
2013-01-09 20:19:00,46.1,39.6,29.95,West,259,3.0,10.0,78,0.00,,,0.00,VWS V14.01,2013-01-10 04:19:00,
2013-01-09 20:24:00,46.3,40.2,29.95,WSW,243,5.0,10.0,79,0.00,,,0.00,VWS V14.01,2013-01-10 04:24:00,
2013-01-09 20:29:00,46.0,40.5,29.95,WNW,285,2.0,10.0,81,0.00,,,0.00,VWS V14.01,2013-01-10 04:29:00,
2013-01-09 20:30:00,45.9,40.4,29.95,SW,215,4.0,10.0,81,0.00,,,0.00,VWS V14.01,2013-01-10 04:30:00,
2013-01-09 20:34:00,45.6,40.4,29.95,NNW,334,1.0,8.0,82,0.00,,,0.00,VWS V14.01,2013-01-10 04:34:00,
2013-01-09 20:39:00,45.5,40.3,29.95,WNW,301,5.0,8.0,82,0.00,,,0.00,VWS V14.01,2013-01-10 04:39:00,
2013-01-09 20:44:00,45.3,40.1,29.95,SW,232,1.0,8.0,82,0.00,,,0.00,VWS V14.01,2013-01-10 04:44:00,
2013-01-09 20:45:00,45.2,40.0,29.95,SW,236,4.0,8.0,82,0.00,,,0.00,VWS V14.01,2013-01-10 04:45:00,
2013-01-09 20:49:00,45.1,40.2,29.95,WSW,241,4.0,6.0,83,0.00,,,0.00,VWS V14.01,2013-01-10 04:49:00,
2013-01-09 20:54:00,44.6,39.8,29.95,West,276,2.0,6.0,83,0.00,,,0.00,VWS V14.01,2013-01-10 04:54:00,
2013-01-09 20:59:00,44.3,40.1,29.95,West,279,0.0,6.0,85,0.00,,,0.00,VWS V14.01,2013-01-10 04:59:00,
2013-01-09 21:00:00,44.3,40.1,29.95,West,279,0.0,6.0,85,0.00,,,0.00,VWS V14.01,2013-01-10 05:00:00,
2013-01-09 21:05:00,44.0,39.8,29.95,West,279,0.0,1.0,85,0.00,,,0.00,VWS V14.01,2013-01-10 05:05:00,
2013-01-09 21:10:00,43.8,39.9,29.95,West,279,0.0,1.0,86,0.00,,,0.00,VWS V14.01,2013-01-10 05:10:00,
2013-01-09 21:15:00,43.6,39.4,29.95,West,279,0.0,0.0,85,0.00,,,0.00,VWS V14.01,2013-01-10 05:15:00,
2013-01-09 21:20:00,43.5,39.6,29.95,West,279,0.0,1.0,86,0.00,,,0.00,VWS V14.01,2013-01-10 05:20:00,
2013-01-09 21:25:00,43.6,39.7,29.94,WSW,237,0.0,1.0,86,0.00,,,0.00,VWS V14.01,2013-01-10 05:25:00,
2013-01-09 21:30:00,44.0,40.4,29.94,WSW,237,0.0,1.0,87,0.00,,,0.00,VWS V14.01,2013-01-10 05:30:00,
2013-01-09 21:35:00,44.3,40.4,29.95,WSW,237,0.0,1.0,86,0.00,,,0.00,VWS V14.01,2013-01-10 05:35:00,
2013-01-09 21:40:00,44.5,40.6,29.95,WSW,237,0.0,1.0,86,0.00,,,0.00,VWS V14.01,2013-01-10 05:40:00,
2013-01-09 21:45:00,44.6,40.7,29.95,SSW,206,0.0,0.0,86,0.00,,,0.00,VWS V14.01,2013-01-10 05:45:00,
2013-01-09 21:50:00,44.5,40.3,29.95,North,6,1.0,6.0,85,0.00,,,0.00,VWS V14.01,2013-01-10 05:50:00,
2013-01-09 21:55:00,44.1,40.2,29.95,West,269,0.0,6.0,86,0.00,,,0.00,VWS V14.01,2013-01-10 05:55:00,
2013-01-09 22:00:00,43.8,39.9,29.95,WNW,286,0.0,0.0,86,0.00,,,0.00,VWS V14.01,2013-01-10 06:00:00,
2013-01-09 22:05:00,43.7,40.1,29.95,WNW,294,2.0,4.0,87,0.00,,,0.00,VWS V14.01,2013-01-10 06:05:00,
2013-01-09 22:10:00,43.8,40.2,29.95,WNW,294,0.0,4.0,87,0.00,,,0.00,VWS V14.01,2013-01-10 06:10:00,
2013-01-09 22:15:00,43.7,40.1,29.95,WNW,294,1.0,1.0,87,0.00,,,0.00,VWS V14.01,2013-01-10 06:15:00,
2013-01-09 22:20:00,43.8,40.2,29.95,WSW,242,0.0,3.0,87,0.00,,,0.00,VWS V14.01,2013-01-10 06:20:00,
2013-01-09 22:25:00,43.8,40.2,29.95,SSW,193,0.0,3.0,87,0.00,,,0.00,VWS V14.01,2013-01-10 06:25:00,
2013-01-09 22:30:00,43.7,40.1,29.95,West,266,0.0,2.0,87,0.00,,,0.00,VWS V14.01,2013-01-10 06:30:00,
2013-01-09 22:35:00,43.4,39.8,29.94,West,265,2.0,6.0,87,0.00,,,0.00,VWS V14.01,2013-01-10 06:35:00,
2013-01-09 22:40:00,43.1,39.8,29.95,WSW,247,0.0,6.0,88,0.00,,,0.00,VWS V14.01,2013-01-10 06:40:00,
2013-01-09 22:45:00,42.7,39.4,29.95,WSW,258,6.0,9.0,88,0.00,,,0.00,VWS V14.01,2013-01-10 06:45:00,
2013-01-09 22:50:00,41.6,38.3,29.95,WSW,247,12.0,15.0,88,0.00,,,0.00,VWS V14.01,2013-01-10 06:50:00,
2013-01-09 22:55:00,41.0,37.7,29.96,WSW,249,9.0,16.0,88,0.00,,,0.00,VWS V14.01,2013-01-10 06:55:00,
2013-01-09 23:00:00,40.7,37.4,29.96,West,267,8.0,11.0,88,0.00,,,0.00,VWS V14.01,2013-01-10 07:00:00,
2013-01-09 23:05:00,40.2,36.9,29.95,SW,227,9.0,13.0,88,0.00,,,0.00,VWS V14.01,2013-01-10 07:05:00,
2013-01-09 23:10:00,39.7,36.4,29.95,WNW,290,10.0,14.0,88,0.00,,,0.00,VWS V14.01,2013-01-10 07:10:00,
2013-01-09 23:15:00,39.3,35.8,29.96,NW,313,1.0,2.0,87,0.00,,,0.00,VWS V14.01,2013-01-10 07:15:00,
2013-01-09 23:20:00,38.4,34.3,29.95,WNW,293,8.0,8.0,85,0.00,,,0.00,VWS V14.01,2013-01-10 07:20:00,
2013-01-09 23:25:00,37.2,33.1,29.95,NNW,329,5.0,11.0,85,0.00,,,0.00,VWS V14.01,2013-01-10 07:25:00,
2013-01-09 23:30:00,36.2,32.1,29.95,NW,312,6.0,8.0,85,0.01,,,0.01,VWS V14.01,2013-01-10 07:30:00,
2013-01-09 23:35:00,35.7,31.6,29.95,NNW,339,4.0,9.0,85,0.01,,,0.01,VWS V14.01,2013-01-10 07:35:00,
2013-01-09 23:40:00,35.5,31.5,29.96,NW,325,5.0,15.0,85,0.01,,,0.01,VWS V14.01,2013-01-10 07:40:00,
2013-01-09 23:45:00,35.2,31.4,29.97,West,264,3.0,6.0,86,0.01,,,0.01,VWS V14.01,2013-01-10 07:45:00,
2013-01-09 23:50:00,35.1,31.6,29.97,North,6,3.0,6.0,87,0.02,,,0.02,VWS V14.01,2013-01-10 07:50:00,
2013-01-09 23:55:00,34.9,31.4,29.96,NNE,18,0.0,6.0,87,0.02,,,0.02,VWS V14.01,2013-01-10 07:55:00,